sensor_id;sensor_type;location;lat;lon;timestamp;P1;P2;P0
72793;PMS5003;63436;26.334;50.194;2023-02-23T00:01:15;71;66;
72793;PMS5003;63436;26.334;50.194;2023-02-23T00:03:38;66;64;
72793;PMS5003;63436;26.334;50.194;2023-02-23T00:06:04;71;65;
72793;PMS5003;63436;26.334;50.194;2023-02-23T00:08:30;69;66;
72793;PMS5003;63436;26.334;50.194;2023-02-23T00:10:55;80;74;
72793;PMS5003;63436;26.334;50.194;2023-02-23T00:13:21;65;61;
72793;PMS5003;63436;26.334;50.194;2023-02-23T00:15:46;71;64;
72793;PMS5003;63436;26.334;50.194;2023-02-23T00:18:12;66;64;
72793;PMS5003;63436;26.334;50.194;2023-02-23T00:20:38;78;71;
72793;PMS5003;63436;26.334;50.194;2023-02-23T00:23:03;78;70;
72793;PMS5003;63436;26.334;50.194;2023-02-23T00:25:28;70;65;
72793;PMS5003;63436;26.334;50.194;2023-02-23T00:27:54;59;58;
72793;PMS5003;63436;26.334;50.194;2023-02-23T00:30:19;63;60;
72793;PMS5003;63436;26.334;50.194;2023-02-23T00:32:45;63;62;
72793;PMS5003;63436;26.334;50.194;2023-02-23T00:35:10;65;62;
72793;PMS5003;63436;26.334;50.194;2023-02-23T00:37:35;68;58;
72793;PMS5003;63436;26.334;50.194;2023-02-23T00:40:00;63;58;
72793;PMS5003;63436;26.334;50.194;2023-02-23T00:42:26;59;54;
72793;PMS5003;63436;26.334;50.194;2023-02-23T00:44:51;60;58;
72793;PMS5003;63436;26.334;50.194;2023-02-23T00:47:17;61;57;
72793;PMS5003;63436;26.334;50.194;2023-02-23T00:49:42;57;56;
72793;PMS5003;63436;26.334;50.194;2023-02-23T00:52:08;59;56;
72793;PMS5003;63436;26.334;50.194;2023-02-23T00:54:34;51;49;
72793;PMS5003;63436;26.334;50.194;2023-02-23T00:57:00;59;50;
72793;PMS5003;63436;26.334;50.194;2023-02-23T00:59:25;51;49;
72793;PMS5003;63436;26.334;50.194;2023-02-23T01:01:51;57;55;
72793;PMS5003;63436;26.334;50.194;2023-02-23T01:04:17;58;54;
72793;PMS5003;63436;26.334;50.194;2023-02-23T01:06:42;53;50;
72793;PMS5003;63436;26.334;50.194;2023-02-23T01:09:08;50;47;
72793;PMS5003;63436;26.334;50.194;2023-02-23T01:11:33;57;49;
72793;PMS5003;63436;26.334;50.194;2023-02-23T01:13:58;48;44;
72793;PMS5003;63436;26.334;50.194;2023-02-23T01:16:25;55;50;
72793;PMS5003;63436;26.334;50.194;2023-02-23T01:18:49;52;49;
72793;PMS5003;63436;26.334;50.194;2023-02-23T01:21:15;58;56;
72793;PMS5003;63436;26.334;50.194;2023-02-23T01:23:39;55;50;
72793;PMS5003;63436;26.334;50.194;2023-02-23T01:26:04;52;49;
72793;PMS5003;63436;26.334;50.194;2023-02-23T01:28:30;55;50;
72793;PMS5003;63436;26.334;50.194;2023-02-23T01:30:55;53;50;
72793;PMS5003;63436;26.334;50.194;2023-02-23T01:33:21;51;45;
72793;PMS5003;63436;26.334;50.194;2023-02-23T01:38:12;51;45;
72793;PMS5003;63436;26.334;50.194;2023-02-23T01:40:41;48;43;
72793;PMS5003;63436;26.334;50.194;2023-02-23T01:45:30;50;43;
72793;PMS5003;63436;26.334;50.194;2023-02-23T01:47:55;42;40;
72793;PMS5003;63436;26.334;50.194;2023-02-23T01:50:21;49;46;
72793;PMS5003;63436;26.334;50.194;2023-02-23T01:52:45;51;46;
72793;PMS5003;63436;26.334;50.194;2023-02-23T01:55:11;52;46;
72793;PMS5003;63436;26.334;50.194;2023-02-23T01:57:37;47;43;
72793;PMS5003;63436;26.334;50.194;2023-02-23T02:00:02;49;42;
72793;PMS5003;63436;26.334;50.194;2023-02-23T02:02:27;49;46;
72793;PMS5003;63436;26.334;50.194;2023-02-23T02:04:53;41;40;
72793;PMS5003;63436;26.334;50.194;2023-02-23T02:07:19;46;43;
72793;PMS5003;63436;26.334;50.194;2023-02-23T02:09:44;41;38;
72793;PMS5003;63436;26.334;50.194;2023-02-23T02:12:11;34;33;
72793;PMS5003;63436;26.334;50.194;2023-02-23T02:14:35;39;38;
72793;PMS5003;63436;26.334;50.194;2023-02-23T02:17:04;39;37;
72793;PMS5003;63436;26.334;50.194;2023-02-23T02:26:46;32;31;
72793;PMS5003;63436;26.334;50.194;2023-02-23T02:31:38;40;34;
72793;PMS5003;63436;26.334;50.194;2023-02-23T02:34:04;37;30;
72793;PMS5003;63436;26.334;50.194;2023-02-23T02:38:52;33;32;
72793;PMS5003;63436;26.334;50.194;2023-02-23T02:41:17;36;33;
72793;PMS5003;63436;26.334;50.194;2023-02-23T02:43:43;37;30;
72793;PMS5003;63436;26.334;50.194;2023-02-23T02:46:09;39;37;
72793;PMS5003;63436;26.334;50.194;2023-02-23T02:48:35;35;32;
72793;PMS5003;63436;26.334;50.194;2023-02-23T02:51:00;38;36;
72793;PMS5003;63436;26.334;50.194;2023-02-23T02:53:25;34;30;
72793;PMS5003;63436;26.334;50.194;2023-02-23T02:55:49;34;33;
72793;PMS5003;63436;26.334;50.194;2023-02-23T02:58:14;39;32;
72793;PMS5003;63436;26.334;50.194;2023-02-23T03:00:40;35;33;
72793;PMS5003;63436;26.334;50.194;2023-02-23T03:03:05;33;29;
72793;PMS5003;63436;26.334;50.194;2023-02-23T03:05:33;52;42;
72793;PMS5003;63436;26.334;50.194;2023-02-23T03:07:57;49;40;
72793;PMS5003;63436;26.334;50.194;2023-02-23T03:10:22;38;32;
72793;PMS5003;63436;26.334;50.194;2023-02-23T03:12:49;34;33;
72793;PMS5003;63436;26.334;50.194;2023-02-23T03:15:16;36;34;
72793;PMS5003;63436;26.334;50.194;2023-02-23T03:17:41;188;102;
72793;PMS5003;63436;26.334;50.194;2023-02-23T03:20:04;62;44;
72793;PMS5003;63436;26.334;50.194;2023-02-23T03:22:29;41;35;
72793;PMS5003;63436;26.334;50.194;2023-02-23T03:24:55;44;39;
72793;PMS5003;63436;26.334;50.194;2023-02-23T03:27:21;36;29;
72793;PMS5003;63436;26.334;50.194;2023-02-23T03:29:46;40;35;
72793;PMS5003;63436;26.334;50.194;2023-02-23T03:32:12;40;34;
72793;PMS5003;63436;26.334;50.194;2023-02-23T03:34:36;44;39;
72793;PMS5003;63436;26.334;50.194;2023-02-23T03:37:02;41;38;
72793;PMS5003;63436;26.334;50.194;2023-02-23T03:39:28;44;36;
72793;PMS5003;63436;26.334;50.194;2023-02-23T03:41:51;36;34;
72793;PMS5003;63436;26.334;50.194;2023-02-23T03:44:18;40;34;
72793;PMS5003;63436;26.334;50.194;2023-02-23T03:46:42;40;36;
72793;PMS5003;63436;26.334;50.194;2023-02-23T03:49:08;41;35;
72793;PMS5003;63436;26.334;50.194;2023-02-23T03:51:34;32;31;
72793;PMS5003;63436;26.334;50.194;2023-02-23T03:54:01;37;37;
72793;PMS5003;63436;26.334;50.194;2023-02-23T03:56:25;40;35;
72793;PMS5003;63436;26.334;50.194;2023-02-23T03:58:50;35;34;
72793;PMS5003;63436;26.334;50.194;2023-02-23T04:01:15;40;35;
72793;PMS5003;63436;26.334;50.194;2023-02-23T04:03:41;40;38;
72793;PMS5003;63436;26.334;50.194;2023-02-23T04:06:07;42;37;
72793;PMS5003;63436;26.334;50.194;2023-02-23T04:08:32;42;33;
72793;PMS5003;63436;26.334;50.194;2023-02-23T04:10:58;42;35;
72793;PMS5003;63436;26.334;50.194;2023-02-23T04:13:23;56;55;
72793;PMS5003;63436;26.334;50.194;2023-02-23T04:15:48;43;35;
72793;PMS5003;63436;26.334;50.194;2023-02-23T04:18:14;39;33;
72793;PMS5003;63436;26.334;50.194;2023-02-23T04:20:39;42;38;
72793;PMS5003;63436;26.334;50.194;2023-02-23T04:23:04;39;34;
72793;PMS5003;63436;26.334;50.194;2023-02-23T04:25:29;42;38;
72793;PMS5003;63436;26.334;50.194;2023-02-23T04:27:54;49;45;
72793;PMS5003;63436;26.334;50.194;2023-02-23T04:30:20;44;37;
72793;PMS5003;63436;26.334;50.194;2023-02-23T04:32:45;42;38;
72793;PMS5003;63436;26.334;50.194;2023-02-23T04:35:11;33;31;
72793;PMS5003;63436;26.334;50.194;2023-02-23T04:37:36;37;34;
72793;PMS5003;63436;26.334;50.194;2023-02-23T04:40:02;40;34;
72793;PMS5003;63436;26.334;50.194;2023-02-23T04:42:28;41;37;
72793;PMS5003;63436;26.334;50.194;2023-02-23T04:44:53;38;33;
72793;PMS5003;63436;26.334;50.194;2023-02-23T04:47:19;36;35;
72793;PMS5003;63436;26.334;50.194;2023-02-23T04:49:44;44;35;
72793;PMS5003;63436;26.334;50.194;2023-02-23T04:52:10;44;37;
72793;PMS5003;63436;26.334;50.194;2023-02-23T04:54:36;44;38;
72793;PMS5003;63436;26.334;50.194;2023-02-23T04:57:01;49;42;
72793;PMS5003;63436;26.334;50.194;2023-02-23T04:59:26;46;40;
72793;PMS5003;63436;26.334;50.194;2023-02-23T05:01:51;47;42;
72793;PMS5003;63436;26.334;50.194;2023-02-23T05:04:18;47;41;
72793;PMS5003;63436;26.334;50.194;2023-02-23T05:06:42;48;44;
72793;PMS5003;63436;26.334;50.194;2023-02-23T05:09:08;51;41;
72793;PMS5003;63436;26.334;50.194;2023-02-23T05:11:34;40;36;
72793;PMS5003;63436;26.334;50.194;2023-02-23T05:13:59;42;38;
72793;PMS5003;63436;26.334;50.194;2023-02-23T05:16:24;38;35;
72793;PMS5003;63436;26.334;50.194;2023-02-23T05:18:50;41;32;
72793;PMS5003;63436;26.334;50.194;2023-02-23T05:21:15;43;35;
72793;PMS5003;63436;26.334;50.194;2023-02-23T05:23:41;39;34;
72793;PMS5003;63436;26.334;50.194;2023-02-23T05:26:08;42;32;
72793;PMS5003;63436;26.334;50.194;2023-02-23T05:28:32;32;28;
72793;PMS5003;63436;26.334;50.194;2023-02-23T05:30:57;38;31;
72793;PMS5003;63436;26.334;50.194;2023-02-23T05:33:24;36;33;
72793;PMS5003;63436;26.334;50.194;2023-02-23T05:35:49;38;34;
72793;PMS5003;63436;26.334;50.194;2023-02-23T05:38:14;36;32;
72793;PMS5003;63436;26.334;50.194;2023-02-23T05:40:40;33;30;
72793;PMS5003;63436;26.334;50.194;2023-02-23T05:43:05;39;34;
72793;PMS5003;63436;26.334;50.194;2023-02-23T05:45:31;37;32;
72793;PMS5003;63436;26.334;50.194;2023-02-23T05:47:57;34;31;
72793;PMS5003;63436;26.334;50.194;2023-02-23T05:50:22;32;31;
72793;PMS5003;63436;26.334;50.194;2023-02-23T05:52:47;38;33;
72793;PMS5003;63436;26.334;50.194;2023-02-23T05:55:12;38;30;
72793;PMS5003;63436;26.334;50.194;2023-02-23T05:57:37;36;29;
72793;PMS5003;63436;26.334;50.194;2023-02-23T06:00:04;39;30;
72793;PMS5003;63436;26.334;50.194;2023-02-23T06:02:29;34;29;
72793;PMS5003;63436;26.334;50.194;2023-02-23T06:04:54;33;32;
72793;PMS5003;63436;26.334;50.194;2023-02-23T06:07:20;36;31;
72793;PMS5003;63436;26.334;50.194;2023-02-23T06:09:46;33;30;
72793;PMS5003;63436;26.334;50.194;2023-02-23T06:12:11;31;30;
72793;PMS5003;63436;26.334;50.194;2023-02-23T06:14:37;30;28;
72793;PMS5003;63436;26.334;50.194;2023-02-23T06:17:03;31;28;
72793;PMS5003;63436;26.334;50.194;2023-02-23T06:19:28;33;28;
72793;PMS5003;63436;26.334;50.194;2023-02-23T06:21:54;33;29;
72793;PMS5003;63436;26.334;50.194;2023-02-23T06:24:21;36;32;
72793;PMS5003;63436;26.334;50.194;2023-02-23T06:26:45;41;34;
72793;PMS5003;63436;26.334;50.194;2023-02-23T06:29:11;31;26;
72793;PMS5003;63436;26.334;50.194;2023-02-23T06:31:36;38;28;
72793;PMS5003;63436;26.334;50.194;2023-02-23T06:34:01;27;26;
72793;PMS5003;63436;26.334;50.194;2023-02-23T06:36:27;32;31;
72793;PMS5003;63436;26.334;50.194;2023-02-23T06:38:54;28;25;
72793;PMS5003;63436;26.334;50.194;2023-02-23T06:41:18;31;29;
72793;PMS5003;63436;26.334;50.194;2023-02-23T06:43:43;36;33;
72793;PMS5003;63436;26.334;50.194;2023-02-23T06:46:09;33;31;
72793;PMS5003;63436;26.334;50.194;2023-02-23T06:48:34;37;33;
72793;PMS5003;63436;26.334;50.194;2023-02-23T06:51:00;32;29;
72793;PMS5003;63436;26.334;50.194;2023-02-23T06:53:26;37;31;
72793;PMS5003;63436;26.334;50.194;2023-02-23T06:55:51;32;31;
72793;PMS5003;63436;26.334;50.194;2023-02-23T06:58:16;35;34;
72793;PMS5003;63436;26.334;50.194;2023-02-23T07:00:42;40;34;
72793;PMS5003;63436;26.334;50.194;2023-02-23T07:03:07;37;32;
72793;PMS5003;63436;26.334;50.194;2023-02-23T07:05:32;35;32;
72793;PMS5003;63436;26.334;50.194;2023-02-23T07:07:58;37;33;
72793;PMS5003;63436;26.334;50.194;2023-02-23T07:10:24;40;34;
72793;PMS5003;63436;26.334;50.194;2023-02-23T07:12:49;36;35;
72793;PMS5003;63436;26.334;50.194;2023-02-23T07:15:15;36;33;
72793;PMS5003;63436;26.334;50.194;2023-02-23T07:17:39;38;34;
72793;PMS5003;63436;26.334;50.194;2023-02-23T07:20:05;38;34;
72793;PMS5003;63436;26.334;50.194;2023-02-23T07:22:31;49;41;
72793;PMS5003;63436;26.334;50.194;2023-02-23T07:24:56;37;36;
72793;PMS5003;63436;26.334;50.194;2023-02-23T07:27:21;34;33;
72793;PMS5003;63436;26.334;50.194;2023-02-23T07:29:47;36;34;
72793;PMS5003;63436;26.334;50.194;2023-02-23T07:32:12;39;35;
72793;PMS5003;63436;26.334;50.194;2023-02-23T07:34:37;36;32;
72793;PMS5003;63436;26.334;50.194;2023-02-23T07:37:03;44;40;
72793;PMS5003;63436;26.334;50.194;2023-02-23T07:39:29;40;36;
72793;PMS5003;63436;26.334;50.194;2023-02-23T07:41:55;40;35;
72793;PMS5003;63436;26.334;50.194;2023-02-23T07:44:21;36;32;
72793;PMS5003;63436;26.334;50.194;2023-02-23T07:46:46;36;33;
72793;PMS5003;63436;26.334;50.194;2023-02-23T07:49:12;35;31;
72793;PMS5003;63436;26.334;50.194;2023-02-23T07:51:38;27;27;
72793;PMS5003;63436;26.334;50.194;2023-02-23T07:54:03;32;31;
72793;PMS5003;63436;26.334;50.194;2023-02-23T07:56:28;47;31;
72793;PMS5003;63436;26.334;50.194;2023-02-23T07:58:54;35;31;
72793;PMS5003;63436;26.334;50.194;2023-02-23T08:01:19;36;35;
72793;PMS5003;63436;26.334;50.194;2023-02-23T08:03:45;40;32;
72793;PMS5003;63436;26.334;50.194;2023-02-23T08:06:11;37;33;
72793;PMS5003;63436;26.334;50.194;2023-02-23T08:08:36;38;35;
72793;PMS5003;63436;26.334;50.194;2023-02-23T08:11:02;42;33;
72793;PMS5003;63436;26.334;50.194;2023-02-23T08:13:27;39;34;
72793;PMS5003;63436;26.334;50.194;2023-02-23T08:15:52;45;37;
72793;PMS5003;63436;26.334;50.194;2023-02-23T08:18:17;45;37;
72793;PMS5003;63436;26.334;50.194;2023-02-23T08:20:42;41;34;
72793;PMS5003;63436;26.334;50.194;2023-02-23T08:23:08;40;36;
72793;PMS5003;63436;26.334;50.194;2023-02-23T08:25:34;41;36;
72793;PMS5003;63436;26.334;50.194;2023-02-23T08:27:59;38;33;
72793;PMS5003;63436;26.334;50.194;2023-02-23T08:30:24;39;34;
72793;PMS5003;63436;26.334;50.194;2023-02-23T08:32:49;39;36;
72793;PMS5003;63436;26.334;50.194;2023-02-23T08:35:15;49;39;
72793;PMS5003;63436;26.334;50.194;2023-02-23T08:37:40;38;35;
72793;PMS5003;63436;26.334;50.194;2023-02-23T08:40:06;43;36;
72793;PMS5003;63436;26.334;50.194;2023-02-23T08:42:32;43;39;
72793;PMS5003;63436;26.334;50.194;2023-02-23T08:44:57;42;33;
72793;PMS5003;63436;26.334;50.194;2023-02-23T08:47:22;41;36;
72793;PMS5003;63436;26.334;50.194;2023-02-23T08:49:48;48;39;
72793;PMS5003;63436;26.334;50.194;2023-02-23T08:52:14;41;35;
72793;PMS5003;63436;26.334;50.194;2023-02-23T08:54:39;41;37;
72793;PMS5003;63436;26.334;50.194;2023-02-23T08:57:05;45;41;
72793;PMS5003;63436;26.334;50.194;2023-02-23T08:59:30;38;34;
72793;PMS5003;63436;26.334;50.194;2023-02-23T09:01:55;43;37;
72793;PMS5003;63436;26.334;50.194;2023-02-23T09:04:21;40;37;
72793;PMS5003;63436;26.334;50.194;2023-02-23T09:06:47;40;36;
72793;PMS5003;63436;26.334;50.194;2023-02-23T09:09:11;46;43;
72793;PMS5003;63436;26.334;50.194;2023-02-23T09:11:37;45;35;
72793;PMS5003;63436;26.334;50.194;2023-02-23T09:14:03;40;35;
72793;PMS5003;63436;26.334;50.194;2023-02-23T09:16:28;39;36;
72793;PMS5003;63436;26.334;50.194;2023-02-23T09:18:54;43;36;
72793;PMS5003;63436;26.334;50.194;2023-02-23T09:21:19;48;37;
72793;PMS5003;63436;26.334;50.194;2023-02-23T09:23:45;36;31;
72793;PMS5003;63436;26.334;50.194;2023-02-23T09:26:11;45;38;
72793;PMS5003;63436;26.334;50.194;2023-02-23T09:28:36;41;35;
72793;PMS5003;63436;26.334;50.194;2023-02-23T09:31:04;44;37;
72793;PMS5003;63436;26.334;50.194;2023-02-23T09:33:27;37;30;
72793;PMS5003;63436;26.334;50.194;2023-02-23T09:35:52;43;36;
72793;PMS5003;63436;26.334;50.194;2023-02-23T09:38:18;45;41;
72793;PMS5003;63436;26.334;50.194;2023-02-23T09:40:45;41;37;
72793;PMS5003;63436;26.334;50.194;2023-02-23T09:43:11;38;35;
72793;PMS5003;63436;26.334;50.194;2023-02-23T09:45:38;43;35;
72793;PMS5003;63436;26.334;50.194;2023-02-23T09:48:07;44;35;
72793;PMS5003;63436;26.334;50.194;2023-02-23T09:50:28;48;37;
72793;PMS5003;63436;26.334;50.194;2023-02-23T09:52:53;47;42;
72793;PMS5003;63436;26.334;50.194;2023-02-23T09:55:18;44;37;
72793;PMS5003;63436;26.334;50.194;2023-02-23T09:57:44;40;37;
72793;PMS5003;63436;26.334;50.194;2023-02-23T10:00:10;48;44;
72793;PMS5003;63436;26.334;50.194;2023-02-23T10:02:35;36;34;
72793;PMS5003;63436;26.334;50.194;2023-02-23T10:05:00;46;39;
72793;PMS5003;63436;26.334;50.194;2023-02-23T10:07:39;46;38;
72793;PMS5003;63436;26.334;50.194;2023-02-23T10:09:55;46;37;
72793;PMS5003;63436;26.334;50.194;2023-02-23T10:12:17;45;38;
72793;PMS5003;63436;26.334;50.194;2023-02-23T10:14:49;44;38;
72793;PMS5003;63436;26.334;50.194;2023-02-23T10:17:10;47;35;
72793;PMS5003;63436;26.334;50.194;2023-02-23T10:19:33;51;42;
72793;PMS5003;63436;26.334;50.194;2023-02-23T10:21:58;48;40;
72793;PMS5003;63436;26.334;50.194;2023-02-23T10:24:24;50;42;
72793;PMS5003;63436;26.334;50.194;2023-02-23T10:26:50;58;44;
72793;PMS5003;63436;26.334;50.194;2023-02-23T10:29:19;44;36;
72793;PMS5003;63436;26.334;50.194;2023-02-23T10:31:40;39;38;
72793;PMS5003;63436;26.334;50.194;2023-02-23T10:34:05;43;41;
72793;PMS5003;63436;26.334;50.194;2023-02-23T10:36:33;56;41;
72793;PMS5003;63436;26.334;50.194;2023-02-23T10:38:55;42;35;
72793;PMS5003;63436;26.334;50.194;2023-02-23T10:41:20;44;41;
72793;PMS5003;63436;26.334;50.194;2023-02-23T10:43:45;49;40;
72793;PMS5003;63436;26.334;50.194;2023-02-23T10:46:11;39;32;
72793;PMS5003;63436;26.334;50.194;2023-02-23T10:48:36;44;34;
72793;PMS5003;63436;26.334;50.194;2023-02-23T10:51:02;52;38;
72793;PMS5003;63436;26.334;50.194;2023-02-23T10:53:30;36;36;
72793;PMS5003;63436;26.334;50.194;2023-02-23T10:56:00;42;36;
72793;PMS5003;63436;26.334;50.194;2023-02-23T10:58:18;43;38;
72793;PMS5003;63436;26.334;50.194;2023-02-23T11:00:50;35;33;
72793;PMS5003;63436;26.334;50.194;2023-02-23T11:05:35;46;35;
72793;PMS5003;63436;26.334;50.194;2023-02-23T11:08:08;42;35;
72793;PMS5003;63436;26.334;50.194;2023-02-23T11:10:25;39;34;
72793;PMS5003;63436;26.334;50.194;2023-02-23T11:12:50;45;35;
72793;PMS5003;63436;26.334;50.194;2023-02-23T11:15:24;38;35;
72793;PMS5003;63436;26.334;50.194;2023-02-23T11:17:41;38;34;
72793;PMS5003;63436;26.334;50.194;2023-02-23T11:20:24;39;36;
72793;PMS5003;63436;26.334;50.194;2023-02-23T11:22:33;37;32;
72793;PMS5003;63436;26.334;50.194;2023-02-23T11:24:58;47;43;
72793;PMS5003;63436;26.334;50.194;2023-02-23T11:27:24;44;40;
72793;PMS5003;63436;26.334;50.194;2023-02-23T11:29:49;48;37;
72793;PMS5003;63436;26.334;50.194;2023-02-23T11:32:15;56;37;
72793;PMS5003;63436;26.334;50.194;2023-02-23T11:34:39;54;43;
72793;PMS5003;63436;26.334;50.194;2023-02-23T11:37:05;47;40;
72793;PMS5003;63436;26.334;50.194;2023-02-23T11:39:30;43;35;
72793;PMS5003;63436;26.334;50.194;2023-02-23T11:44:21;52;40;
72793;PMS5003;63436;26.334;50.194;2023-02-23T11:46:47;45;42;
72793;PMS5003;63436;26.334;50.194;2023-02-23T11:49:13;45;43;
72793;PMS5003;63436;26.334;50.194;2023-02-23T11:51:39;49;43;
72793;PMS5003;63436;26.334;50.194;2023-02-23T11:54:04;48;45;
72793;PMS5003;63436;26.334;50.194;2023-02-23T11:56:31;48;44;
72793;PMS5003;63436;26.334;50.194;2023-02-23T11:58:55;48;43;
72793;PMS5003;63436;26.334;50.194;2023-02-23T12:01:21;50;40;
72793;PMS5003;63436;26.334;50.194;2023-02-23T12:03:46;50;43;
72793;PMS5003;63436;26.334;50.194;2023-02-23T12:06:11;58;47;
72793;PMS5003;63436;26.334;50.194;2023-02-23T12:08:38;52;40;
72793;PMS5003;63436;26.334;50.194;2023-02-23T12:11:02;48;42;
72793;PMS5003;63436;26.334;50.194;2023-02-23T12:13:29;43;39;
72793;PMS5003;63436;26.334;50.194;2023-02-23T12:15:53;46;43;
72793;PMS5003;63436;26.334;50.194;2023-02-23T12:18:21;49;43;
72793;PMS5003;63436;26.334;50.194;2023-02-23T12:20:43;53;48;
72793;PMS5003;63436;26.334;50.194;2023-02-23T12:23:10;55;50;
72793;PMS5003;63436;26.334;50.194;2023-02-23T12:25:35;43;40;
72793;PMS5003;63436;26.334;50.194;2023-02-23T12:28:01;55;46;
72793;PMS5003;63436;26.334;50.194;2023-02-23T12:30:26;50;42;
72793;PMS5003;63436;26.334;50.194;2023-02-23T12:32:53;46;41;
72793;PMS5003;63436;26.334;50.194;2023-02-23T12:35:17;50;43;
72793;PMS5003;63436;26.334;50.194;2023-02-23T12:37:42;53;44;
72793;PMS5003;63436;26.334;50.194;2023-02-23T12:40:11;50;43;
72793;PMS5003;63436;26.334;50.194;2023-02-23T12:42:35;49;43;
72793;PMS5003;63436;26.334;50.194;2023-02-23T12:44:58;48;43;
72793;PMS5003;63436;26.334;50.194;2023-02-23T12:47:25;47;44;
72793;PMS5003;63436;26.334;50.194;2023-02-23T12:49:49;57;51;
72793;PMS5003;63436;26.334;50.194;2023-02-23T12:52:14;51;40;
72793;PMS5003;63436;26.334;50.194;2023-02-23T12:54:39;57;47;
72793;PMS5003;63436;26.334;50.194;2023-02-23T12:57:07;51;44;
72793;PMS5003;63436;26.334;50.194;2023-02-23T12:59:37;46;42;
72793;PMS5003;63436;26.334;50.194;2023-02-23T13:01:55;49;45;
72793;PMS5003;63436;26.334;50.194;2023-02-23T13:04:27;46;44;
72793;PMS5003;63436;26.334;50.194;2023-02-23T13:06:47;51;42;
72793;PMS5003;63436;26.334;50.194;2023-02-23T13:09:14;62;49;
72793;PMS5003;63436;26.334;50.194;2023-02-23T13:11:42;48;43;
72793;PMS5003;63436;26.334;50.194;2023-02-23T13:14:02;57;47;
72793;PMS5003;63436;26.334;50.194;2023-02-23T13:16:27;50;47;
72793;PMS5003;63436;26.334;50.194;2023-02-23T13:18:56;53;49;
72793;PMS5003;63436;26.334;50.194;2023-02-23T13:21:18;47;44;
72793;PMS5003;63436;26.334;50.194;2023-02-23T13:23:45;42;40;
72793;PMS5003;63436;26.334;50.194;2023-02-23T13:26:10;48;46;
72793;PMS5003;63436;26.334;50.194;2023-02-23T13:28:35;44;40;
72793;PMS5003;63436;26.334;50.194;2023-02-23T13:30:58;51;45;
72793;PMS5003;63436;26.334;50.194;2023-02-23T13:33:25;51;45;
72793;PMS5003;63436;26.334;50.194;2023-02-23T13:35:49;59;46;
72793;PMS5003;63436;26.334;50.194;2023-02-23T13:38:16;49;43;
72793;PMS5003;63436;26.334;50.194;2023-02-23T13:40:41;63;47;
72793;PMS5003;63436;26.334;50.194;2023-02-23T13:43:08;54;46;
72793;PMS5003;63436;26.334;50.194;2023-02-23T13:45:40;62;54;
72793;PMS5003;63436;26.334;50.194;2023-02-23T13:47:59;59;49;
72793;PMS5003;63436;26.334;50.194;2023-02-23T13:50:24;46;42;
72793;PMS5003;63436;26.334;50.194;2023-02-23T13:52:48;50;43;
72793;PMS5003;63436;26.334;50.194;2023-02-23T13:57:42;51;45;
72793;PMS5003;63436;26.334;50.194;2023-02-23T14:00:05;44;38;
72793;PMS5003;63436;26.334;50.194;2023-02-23T14:02:32;47;43;
72793;PMS5003;63436;26.334;50.194;2023-02-23T14:04:56;47;40;
72793;PMS5003;63436;26.334;50.194;2023-02-23T14:07:22;45;40;
72793;PMS5003;63436;26.334;50.194;2023-02-23T14:09:48;43;42;
72793;PMS5003;63436;26.334;50.194;2023-02-23T14:12:13;43;41;
72793;PMS5003;63436;26.334;50.194;2023-02-23T14:14:38;47;42;
72793;PMS5003;63436;26.334;50.194;2023-02-23T14:17:09;49;41;
72793;PMS5003;63436;26.334;50.194;2023-02-23T14:19:30;52;45;
72793;PMS5003;63436;26.334;50.194;2023-02-23T14:21:56;53;46;
72793;PMS5003;63436;26.334;50.194;2023-02-23T14:24:20;46;42;
72793;PMS5003;63436;26.334;50.194;2023-02-23T14:26:46;51;47;
72793;PMS5003;63436;26.334;50.194;2023-02-23T14:31:35;58;51;
72793;PMS5003;63436;26.334;50.194;2023-02-23T14:34:05;56;52;
72793;PMS5003;63436;26.334;50.194;2023-02-23T14:36:27;58;55;
72793;PMS5003;63436;26.334;50.194;2023-02-23T14:38:56;50;50;
72793;PMS5003;63436;26.334;50.194;2023-02-23T14:41:19;58;51;
72793;PMS5003;63436;26.334;50.194;2023-02-23T14:43:42;62;58;
72793;PMS5003;63436;26.334;50.194;2023-02-23T14:46:08;56;49;
72793;PMS5003;63436;26.334;50.194;2023-02-23T14:48:32;48;45;
72793;PMS5003;63436;26.334;50.194;2023-02-23T14:53:23;55;50;
72793;PMS5003;63436;26.334;50.194;2023-02-23T14:55:48;52;49;
72793;PMS5003;63436;26.334;50.194;2023-02-23T15:00:40;54;54;
72793;PMS5003;63436;26.334;50.194;2023-02-23T15:03:06;59;52;
72793;PMS5003;63436;26.334;50.194;2023-02-23T15:05:31;51;49;
72793;PMS5003;63436;26.334;50.194;2023-02-23T15:07:57;60;59;
72793;PMS5003;63436;26.334;50.194;2023-02-23T15:10:23;59;59;
72793;PMS5003;63436;26.334;50.194;2023-02-23T15:12:46;59;53;
72793;PMS5003;63436;26.334;50.194;2023-02-23T15:15:13;66;60;
72793;PMS5003;63436;26.334;50.194;2023-02-23T15:17:41;62;55;
72793;PMS5003;63436;26.334;50.194;2023-02-23T15:20:03;61;53;
72793;PMS5003;63436;26.334;50.194;2023-02-23T15:22:29;62;59;
72793;PMS5003;63436;26.334;50.194;2023-02-23T15:24:55;54;53;
72793;PMS5003;63436;26.334;50.194;2023-02-23T15:27:20;59;56;
72793;PMS5003;63436;26.334;50.194;2023-02-23T15:29:44;68;59;
72793;PMS5003;63436;26.334;50.194;2023-02-23T15:32:11;56;53;
72793;PMS5003;63436;26.334;50.194;2023-02-23T15:34:35;64;56;
72793;PMS5003;63436;26.334;50.194;2023-02-23T15:37:01;64;58;
72793;PMS5003;63436;26.334;50.194;2023-02-23T15:39:31;64;58;
72793;PMS5003;63436;26.334;50.194;2023-02-23T15:41:52;66;60;
72793;PMS5003;63436;26.334;50.194;2023-02-23T15:44:19;61;55;
72793;PMS5003;63436;26.334;50.194;2023-02-23T15:46:43;73;67;
72793;PMS5003;63436;26.334;50.194;2023-02-23T15:49:09;61;60;
72793;PMS5003;63436;26.334;50.194;2023-02-23T15:51:35;69;64;
72793;PMS5003;63436;26.334;50.194;2023-02-23T15:53:59;69;64;
72793;PMS5003;63436;26.334;50.194;2023-02-23T15:56:25;70;68;
72793;PMS5003;63436;26.334;50.194;2023-02-23T15:58:51;73;66;
72793;PMS5003;63436;26.334;50.194;2023-02-23T16:01:18;79;68;
72793;PMS5003;63436;26.334;50.194;2023-02-23T16:03:43;69;63;
72793;PMS5003;63436;26.334;50.194;2023-02-23T16:06:07;67;64;
72793;PMS5003;63436;26.334;50.194;2023-02-23T16:08:31;70;63;
72793;PMS5003;63436;26.334;50.194;2023-02-23T16:11:01;66;60;
72793;PMS5003;63436;26.334;50.194;2023-02-23T16:13:22;72;62;
72793;PMS5003;63436;26.334;50.194;2023-02-23T16:15:48;71;66;
72793;PMS5003;63436;26.334;50.194;2023-02-23T16:18:14;72;60;
72793;PMS5003;63436;26.334;50.194;2023-02-23T16:20:39;60;58;